createdAt,value
2023-03-25T00:00:18.279Z,99.90
2023-03-25T00:02:51.468Z,99.90
2023-03-25T00:05:21.860Z,99.90
2023-03-25T00:07:52.034Z,99.90
2023-03-25T00:10:20.631Z,99.90
2023-03-25T00:12:48.316Z,99.90
2023-03-25T00:15:16.689Z,99.90
2023-03-25T00:17:44.946Z,99.90
2023-03-25T00:20:12.860Z,99.90
2023-03-25T00:22:44.426Z,99.90
2023-03-25T00:25:20.558Z,99.90
2023-03-25T00:27:49.257Z,99.90
2023-03-25T00:30:18.651Z,99.90
2023-03-25T00:32:50.318Z,99.90
2023-03-25T00:35:20.065Z,99.90
2023-03-25T00:37:57.723Z,99.90
2023-03-25T00:40:28.553Z,99.90
2023-03-25T00:42:57.528Z,99.90
2023-03-25T00:45:25.450Z,99.90
2023-03-25T00:47:53.270Z,99.90
2023-03-25T00:50:24.907Z,99.90
2023-03-25T00:52:54.740Z,99.90
2023-03-25T00:55:22.862Z,99.90
2023-03-25T00:57:50.670Z,99.90
2023-03-25T01:00:18.979Z,99.90
2023-03-25T01:02:49.093Z,99.90
2023-03-25T01:05:18.095Z,99.90
2023-03-25T01:07:45.728Z,99.90
2023-03-25T01:10:13.476Z,99.90
2023-03-25T01:12:41.174Z,99.90
2023-03-25T01:15:10.950Z,99.90
2023-03-25T01:17:38.788Z,99.90
2023-03-25T01:20:09.122Z,99.90
2023-03-25T01:22:37.087Z,99.90
2023-03-25T01:25:05.211Z,99.90
2023-03-25T01:27:32.991Z,99.90
2023-03-25T01:30:00.635Z,99.90
2023-03-25T01:32:29.628Z,99.90
2023-03-25T01:34:57.481Z,99.90
2023-03-25T01:37:25.809Z,99.90
2023-03-25T01:39:53.773Z,99.90
2023-03-25T01:42:21.513Z,99.90
2023-03-25T01:44:52.251Z,99.90
2023-03-25T01:47:20.092Z,99.90
2023-03-25T01:49:47.757Z,99.90
2023-03-25T01:52:20.129Z,99.90
2023-03-25T01:54:51.092Z,99.90
2023-03-25T01:57:22.202Z,99.90
2023-03-25T01:59:52.104Z,99.90
2023-03-25T02:02:20.517Z,99.90
2023-03-25T02:05:02.743Z,99.90
2023-03-25T02:07:33.870Z,99.90
2023-03-25T02:10:05.904Z,99.90
2023-03-25T02:12:33.832Z,99.90
2023-03-25T02:15:04.901Z,99.90
2023-03-25T02:17:48.046Z,99.90
2023-03-25T02:20:21.691Z,99.90
2023-03-25T02:23:13.276Z,99.90
2023-03-25T02:26:18.223Z,99.90
2023-03-25T02:28:54.020Z,99.90
2023-03-25T02:32:12.316Z,99.90
2023-03-25T02:34:52.946Z,99.90
2023-03-25T02:37:47.053Z,99.90
2023-03-25T02:40:28.333Z,99.90
2023-03-25T02:43:06.187Z,99.90
2023-03-25T02:45:44.132Z,99.90
2023-03-25T02:48:19.695Z,99.90
2023-03-25T02:50:53.122Z,99.90
2023-03-25T02:53:34.654Z,99.90
2023-03-25T02:56:11.095Z,99.90
2023-03-25T02:58:41.914Z,99.90
2023-03-25T03:01:10.338Z,99.90
2023-03-25T03:03:38.530Z,99.90
2023-03-25T03:06:08.214Z,99.90
2023-03-25T03:08:51.806Z,99.90
2023-03-25T03:11:40.445Z,99.90
2023-03-25T03:14:30.067Z,99.90
2023-03-25T03:17:04.029Z,99.90
2023-03-25T03:19:50.939Z,99.90
2023-03-25T03:22:25.968Z,99.90
2023-03-25T03:25:06.659Z,99.90
2023-03-25T03:27:45.732Z,99.90
2023-03-25T03:30:26.863Z,99.90
2023-03-25T03:33:10.068Z,99.90
2023-03-25T03:35:43.344Z,99.90
2023-03-25T03:38:16.498Z,99.90
2023-03-25T03:40:50.440Z,99.90
2023-03-25T03:43:48.085Z,99.90
2023-03-25T03:46:21.657Z,99.90
2023-03-25T03:48:54.992Z,99.90
2023-03-25T03:51:30.451Z,99.90
2023-03-25T03:54:04.129Z,99.90
2023-03-25T03:56:41.428Z,99.90
2023-03-25T03:59:16.582Z,99.90
2023-03-25T04:01:54.310Z,99.90
2023-03-25T04:04:27.261Z,99.90
2023-03-25T04:07:20.963Z,99.90
2023-03-25T04:10:15.254Z,99.90
2023-03-25T04:12:47.808Z,99.90
2023-03-25T04:15:16.327Z,99.90
2023-03-25T04:17:44.491Z,99.90
2023-03-25T04:20:16.898Z,99.90
2023-03-25T04:22:46.015Z,99.90
2023-03-25T04:25:14.225Z,99.90
2023-03-25T04:27:45.807Z,99.90
2023-03-25T04:30:13.541Z,99.90
2023-03-25T04:32:41.149Z,99.90
2023-03-25T04:35:09.691Z,99.90
2023-03-25T04:37:37.933Z,99.90
2023-03-25T04:40:08.500Z,99.90
2023-03-25T04:42:37.640Z,99.90
2023-03-25T04:45:06.405Z,99.90
2023-03-25T04:47:34.107Z,99.90
2023-03-25T04:50:02.029Z,99.90
2023-03-25T04:52:29.687Z,99.90
2023-03-25T04:54:57.459Z,99.90
2023-03-25T04:57:26.589Z,99.90
2023-03-25T04:59:54.268Z,99.90
2023-03-25T05:02:24.311Z,99.90
2023-03-25T05:04:54.174Z,99.90
2023-03-25T05:07:21.940Z,99.90
2023-03-25T05:09:49.642Z,99.90
2023-03-25T05:12:17.431Z,99.90
2023-03-25T05:14:45.176Z,99.90
2023-03-25T05:17:12.993Z,99.90
2023-03-25T05:19:43.959Z,99.90
2023-03-25T05:22:13.253Z,99.90
2023-03-25T05:24:45.206Z,99.90
2023-03-25T05:27:12.837Z,99.90
2023-03-25T05:29:40.538Z,99.90
2023-03-25T05:32:08.247Z,99.90
2023-03-25T05:34:35.979Z,99.90
2023-03-25T05:37:03.574Z,99.90
2023-03-25T05:39:31.649Z,99.90
2023-03-25T05:42:03.038Z,99.90
2023-03-25T05:44:30.787Z,99.90
2023-03-25T05:47:01.796Z,99.90
2023-03-25T05:49:29.980Z,99.90
2023-03-25T05:51:57.681Z,99.90
2023-03-25T05:54:25.562Z,99.90
2023-03-25T05:56:53.300Z,99.90
2023-03-25T05:59:21.863Z,99.90
2023-03-25T06:01:50.185Z,99.90
2023-03-25T06:04:17.997Z,99.90
2023-03-25T06:06:45.690Z,99.90
2023-03-25T06:09:13.349Z,99.90
2023-03-25T06:11:41.141Z,99.90
2023-03-25T06:14:09.414Z,99.90
2023-03-25T06:16:37.226Z,99.90
2023-03-25T06:19:04.951Z,99.90
2023-03-25T06:21:35.688Z,99.90
2023-03-25T06:24:03.845Z,99.90
2023-03-25T06:26:32.936Z,99.90
2023-03-25T06:29:02.829Z,99.90
2023-03-25T06:31:34.357Z,99.90
2023-03-25T06:34:02.719Z,99.90
2023-03-25T06:36:31.694Z,99.90
2023-03-25T06:38:59.573Z,99.90
2023-03-25T06:41:28.324Z,99.90
2023-03-25T06:44:24.561Z,99.90
2023-03-25T06:47:11.387Z,99.90
2023-03-25T06:49:44.623Z,99.90
2023-03-25T06:52:12.646Z,99.90
2023-03-25T06:54:40.723Z,99.90
2023-03-25T06:57:08.726Z,99.90
2023-03-25T06:59:36.547Z,99.90
2023-03-25T07:02:04.324Z,99.90
2023-03-25T07:04:32.286Z,99.90
2023-03-25T07:07:00.050Z,99.90
2023-03-25T07:09:27.770Z,99.90
2023-03-25T07:11:55.575Z,99.90
2023-03-25T07:14:23.229Z,99.90
2023-03-25T07:16:51.117Z,99.90
2023-03-25T07:19:18.906Z,99.90
2023-03-25T07:21:46.635Z,99.90
2023-03-25T07:24:14.509Z,99.90
2023-03-25T07:26:42.202Z,99.90
2023-03-25T07:29:11.505Z,99.90
2023-03-25T07:31:40.582Z,99.90
2023-03-25T07:34:08.858Z,99.90
2023-03-25T07:36:36.713Z,99.90
2023-03-25T07:39:04.490Z,99.90
2023-03-25T07:41:32.176Z,99.90
2023-03-25T07:44:23.291Z,99.90
2023-03-25T07:46:51.169Z,99.90
2023-03-25T07:49:19.613Z,99.90
2023-03-25T07:51:47.616Z,99.90
2023-03-25T07:54:15.578Z,99.90
2023-03-25T07:56:43.918Z,99.90
2023-03-25T07:59:12.013Z,99.90
2023-03-25T08:01:39.857Z,99.90
2023-03-25T08:04:07.461Z,99.90
2023-03-25T08:06:35.280Z,99.90
2023-03-25T08:09:03.127Z,99.90
2023-03-25T08:11:32.577Z,99.90
2023-03-25T08:14:01.648Z,99.90
2023-03-25T08:16:30.144Z,99.90
2023-03-25T08:18:58.631Z,99.90
2023-03-25T08:21:27.481Z,99.90
2023-03-25T08:24:02.418Z,99.90
2023-03-25T08:26:31.685Z,99.90
2023-03-25T08:29:00.115Z,99.90
2023-03-25T08:31:31.302Z,99.90
2023-03-25T08:34:04.438Z,99.90
2023-03-25T08:36:32.561Z,99.90
2023-03-25T08:39:00.266Z,99.90
2023-03-25T08:41:27.991Z,99.90
2023-03-25T08:43:55.989Z,99.90
2023-03-25T08:46:23.781Z,99.90
2023-03-25T08:48:51.527Z,99.90
2023-03-25T08:51:19.325Z,99.90
2023-03-25T08:53:46.985Z,99.90
2023-03-25T08:56:14.865Z,99.90
2023-03-25T08:58:42.723Z,99.90
2023-03-25T09:01:12.320Z,99.90
2023-03-25T09:03:41.132Z,99.90
2023-03-25T09:06:09.526Z,99.90
2023-03-25T09:08:37.642Z,99.90
2023-03-25T09:11:05.785Z,99.90
2023-03-25T09:13:33.474Z,99.90
2023-03-25T09:16:01.171Z,99.90
2023-03-25T09:18:28.971Z,99.90
2023-03-25T09:21:01.048Z,99.90
2023-03-25T09:23:29.382Z,99.90
2023-03-25T09:26:02.613Z,99.90
2023-03-25T09:28:30.688Z,99.90
2023-03-25T09:30:58.649Z,99.90
2023-03-25T09:33:27.660Z,99.90
2023-03-25T09:35:55.701Z,99.90
2023-03-25T09:38:23.532Z,99.90
2023-03-25T09:40:51.481Z,99.90
2023-03-25T09:43:40.578Z,99.90
2023-03-25T09:46:09.489Z,99.90
2023-03-25T09:48:43.329Z,99.90
2023-03-25T09:51:30.623Z,99.90
2023-03-25T09:54:08.800Z,99.90
2023-03-25T09:56:41.828Z,99.90
2023-03-25T09:59:23.769Z,99.90
2023-03-25T10:02:26.962Z,99.90
2023-03-25T10:05:07.105Z,99.90
2023-03-25T10:08:05.867Z,99.90
2023-03-25T10:10:46.865Z,99.90
2023-03-25T10:13:36.658Z,99.90
2023-03-25T10:16:26.282Z,99.90
2023-03-25T10:19:18.610Z,99.90
2023-03-25T10:21:55.643Z,99.90
2023-03-25T10:24:32.320Z,99.90
2023-03-25T10:27:03.371Z,99.90
2023-03-25T10:29:45.959Z,99.90
2023-03-25T10:32:36.747Z,99.90
2023-03-25T10:35:07.743Z,99.90
2023-03-25T10:37:42.170Z,99.90
2023-03-25T10:40:31.862Z,99.90
2023-03-25T10:43:05.435Z,99.90
2023-03-25T10:45:34.261Z,99.90
2023-03-25T10:48:11.954Z,99.90
2023-03-25T10:50:42.185Z,99.90
2023-03-25T10:53:36.441Z,99.90
2023-03-25T10:56:08.325Z,99.90
2023-03-25T10:58:38.762Z,99.90
2023-03-25T11:01:16.245Z,99.90
2023-03-25T11:03:45.128Z,99.90
2023-03-25T11:06:24.404Z,99.90
2023-03-25T11:09:14.036Z,99.90
2023-03-25T11:11:43.768Z,99.90
2023-03-25T11:14:12.444Z,99.80
2023-03-25T11:16:54.598Z,99.20
2023-03-25T11:19:28.949Z,99.90
2023-03-25T11:22:02.068Z,98.80
2023-03-25T11:24:40.382Z,99.10
2023-03-25T11:27:09.283Z,97.90
2023-03-25T11:29:38.209Z,96.80
2023-03-25T11:32:09.001Z,95.70
2023-03-25T11:34:42.522Z,94.50
2023-03-25T11:37:22.463Z,94.50
2023-03-25T11:39:56.451Z,92.60
2023-03-25T11:42:34.129Z,92.30
2023-03-25T11:45:03.900Z,92.40
2023-03-25T11:47:34.926Z,91.30
2023-03-25T11:50:04.110Z,87.20
2023-03-25T11:52:46.929Z,85.80
2023-03-25T11:55:26.197Z,88.60
2023-03-25T11:57:59.128Z,87.00
2023-03-25T12:00:34.205Z,88.30
2023-03-25T12:03:16.569Z,82.40
2023-03-25T12:06:04.346Z,83.30
2023-03-25T12:08:59.066Z,77.80
2023-03-25T12:11:57.021Z,79.10
2023-03-25T12:15:07.060Z,76.70
2023-03-25T12:17:52.062Z,68.40
2023-03-25T12:20:37.970Z,72.40
2023-03-25T12:23:11.531Z,71.70
2023-03-25T12:26:04.665Z,67.20
2023-03-25T12:29:02.472Z,65.50
2023-03-25T12:31:30.455Z,63.00
2023-03-25T12:34:15.000Z,62.70
2023-03-25T12:36:51.673Z,63.20
2023-03-25T12:39:42.766Z,63.40
2023-03-25T12:42:44.313Z,61.60
2023-03-25T12:45:44.159Z,63.60
2023-03-25T12:48:36.459Z,60.20
2023-03-25T12:51:07.061Z,59.70
2023-03-25T12:53:41.473Z,59.20
2023-03-25T12:56:33.469Z,59.40
2023-03-25T12:59:13.168Z,62.50
2023-03-25T13:02:13.021Z,60.50
2023-03-25T13:05:05.075Z,60.70
2023-03-25T13:07:41.156Z,60.20
2023-03-25T13:10:21.797Z,62.20
2023-03-25T13:12:55.605Z,61.50
2023-03-25T13:15:28.163Z,57.20
2023-03-25T13:18:13.987Z,56.80
2023-03-25T13:21:00.597Z,56.50
2023-03-25T13:23:30.873Z,58.60
2023-03-25T13:26:06.631Z,58.40
2023-03-25T13:28:59.126Z,58.40
2023-03-25T13:31:47.003Z,56.80
2023-03-25T13:34:44.090Z,57.90
2023-03-25T13:37:18.811Z,58.30
2023-03-25T13:39:52.707Z,60.40
2023-03-25T13:42:42.224Z,58.20
2023-03-25T13:45:17.522Z,56.70
2023-03-25T13:47:55.670Z,54.30
2023-03-25T13:50:29.251Z,53.80
2023-03-25T13:53:04.021Z,53.90
2023-03-25T13:55:45.716Z,52.90
2023-03-25T13:58:22.303Z,53.20
2023-03-25T14:01:12.623Z,51.80
2023-03-25T14:03:40.345Z,50.70
2023-03-25T14:06:16.774Z,51.10
2023-03-25T14:09:15.053Z,52.10
2023-03-25T14:12:08.449Z,53.20
2023-03-25T14:14:41.865Z,53.60
2023-03-25T14:17:12.033Z,55.10
2023-03-25T14:19:44.296Z,54.50
2023-03-25T14:22:18.846Z,52.90
2023-03-25T14:24:47.029Z,53.00
2023-03-25T14:27:30.104Z,54.40
2023-03-25T14:30:02.971Z,55.30
2023-03-25T14:32:33.049Z,55.40
2023-03-25T14:35:31.945Z,54.50
2023-03-25T14:38:08.846Z,54.70
2023-03-25T14:41:02.116Z,54.20
2023-03-25T14:43:46.820Z,54.90
2023-03-25T14:46:20.690Z,53.70
2023-03-25T14:48:54.717Z,54.20
2023-03-25T14:51:28.592Z,54.10
2023-03-25T14:54:26.289Z,55.00
2023-03-25T14:57:07.879Z,55.50
2023-03-25T14:59:49.798Z,55.70
2023-03-25T15:02:22.872Z,53.70
2023-03-25T15:05:15.164Z,54.00
2023-03-25T15:07:51.758Z,54.30
2023-03-25T15:10:25.633Z,53.60
2023-03-25T15:13:04.018Z,53.40
2023-03-25T15:15:41.400Z,52.90
2023-03-25T15:18:10.624Z,51.00
2023-03-25T15:20:38.709Z,52.20
2023-03-25T15:23:36.464Z,53.00
2023-03-25T15:26:05.717Z,52.10
2023-03-25T15:28:51.835Z,52.50
2023-03-25T15:31:57.005Z,52.40
2023-03-25T15:34:34.896Z,52.50
2023-03-25T15:37:11.637Z,51.00
2023-03-25T15:40:16.551Z,50.90
2023-03-25T15:43:21.714Z,51.50
2023-03-25T15:45:49.498Z,52.50
2023-03-25T15:48:32.285Z,51.00
2023-03-25T15:51:37.418Z,52.70
2023-03-25T15:54:27.510Z,50.80
2023-03-25T15:56:59.623Z,51.00
2023-03-25T15:59:44.565Z,49.80
2023-03-25T16:02:27.594Z,51.10
2023-03-25T16:04:56.068Z,51.40
2023-03-25T16:07:28.824Z,52.50
2023-03-25T16:10:04.132Z,52.90
2023-03-25T16:12:31.892Z,53.00
2023-03-25T16:14:59.576Z,53.20
2023-03-25T16:17:35.193Z,53.40
2023-03-25T16:20:06.322Z,53.60
2023-03-25T16:22:37.588Z,54.10
2023-03-25T16:25:14.161Z,54.70
2023-03-25T16:27:47.389Z,54.90
2023-03-25T16:30:20.155Z,54.60
2023-03-25T16:32:48.062Z,54.70
2023-03-25T16:35:27.380Z,55.10
2023-03-25T16:37:56.940Z,55.30
2023-03-25T16:40:44.111Z,55.90
2023-03-25T16:43:17.717Z,56.20
2023-03-25T16:45:47.047Z,55.90
2023-03-25T16:48:18.673Z,56.10
2023-03-25T16:50:47.007Z,55.80
2023-03-25T16:53:17.864Z,56.00
2023-03-25T16:55:49.192Z,56.00
2023-03-25T16:58:24.008Z,56.40
2023-03-25T17:00:56.544Z,57.00
2023-03-25T17:03:47.396Z,56.90
2023-03-25T17:06:22.927Z,57.20
2023-03-25T17:08:53.303Z,57.00
2023-03-25T17:11:22.630Z,57.40
2023-03-25T17:13:54.891Z,57.40
2023-03-25T17:16:23.340Z,57.80
2023-03-25T17:18:54.570Z,57.30
2023-03-25T17:21:31.299Z,57.80
2023-03-25T17:24:02.791Z,57.80
2023-03-25T17:26:53.263Z,58.40
2023-03-25T17:29:22.269Z,58.50
2023-03-25T17:31:59.217Z,58.70
2023-03-25T17:34:27.903Z,59.30
2023-03-25T17:37:01.366Z,59.60
2023-03-25T17:39:32.282Z,60.60
2023-03-25T17:42:03.002Z,61.00
2023-03-25T17:44:36.167Z,61.30
2023-03-25T17:47:06.254Z,61.20
2023-03-25T17:49:34.449Z,61.40
2023-03-25T17:52:03.005Z,62.50
2023-03-25T17:54:31.695Z,62.40
2023-03-25T17:56:59.361Z,62.80
2023-03-25T17:59:27.301Z,63.70
2023-03-25T18:01:55.364Z,63.00
2023-03-25T18:04:24.198Z,63.10
2023-03-25T18:06:52.358Z,63.00
2023-03-25T18:09:23.805Z,64.30
2023-03-25T18:11:54.215Z,63.90
2023-03-25T18:14:23.257Z,63.70
2023-03-25T18:16:51.511Z,63.80
2023-03-25T18:19:25.277Z,63.60
2023-03-25T18:21:53.386Z,64.10
2023-03-25T18:24:22.720Z,64.20
2023-03-25T18:26:50.792Z,64.00
2023-03-25T18:29:23.135Z,65.00
2023-03-25T18:31:52.004Z,64.50
2023-03-25T18:34:21.029Z,66.10
2023-03-25T18:36:49.628Z,68.40
2023-03-25T18:39:21.093Z,69.30
2023-03-25T18:41:49.377Z,69.60
2023-03-25T18:44:17.964Z,68.40
2023-03-25T18:46:46.605Z,70.90
2023-03-25T18:49:20.035Z,74.20
2023-03-25T18:51:48.529Z,77.60
2023-03-25T18:54:17.953Z,84.70
2023-03-25T18:56:46.059Z,93.20
2023-03-25T18:59:18.810Z,98.90
2023-03-25T19:01:47.539Z,99.90
2023-03-25T19:04:15.520Z,99.90
2023-03-25T19:06:43.454Z,99.90
2023-03-25T19:09:18.540Z,99.90
2023-03-25T19:11:47.329Z,99.90
2023-03-25T19:14:17.672Z,99.90
2023-03-25T19:16:57.345Z,99.90
2023-03-25T19:19:29.294Z,99.90
2023-03-25T19:21:57.082Z,99.90
2023-03-25T19:24:24.975Z,99.90
2023-03-25T19:26:52.726Z,99.90
2023-03-25T19:29:20.667Z,99.90
2023-03-25T19:31:48.842Z,99.90
2023-03-25T19:34:18.110Z,99.90
2023-03-25T19:36:47.096Z,99.90
2023-03-25T19:39:15.763Z,99.90
2023-03-25T19:41:44.983Z,99.90
2023-03-25T19:44:14.499Z,99.90
2023-03-25T19:46:42.789Z,99.90
2023-03-25T19:49:10.925Z,99.90
2023-03-25T19:51:38.840Z,99.90
2023-03-25T19:54:06.703Z,99.90
2023-03-25T19:56:34.610Z,99.90
2023-03-25T19:59:02.889Z,99.90
2023-03-25T20:01:31.283Z,99.90
2023-03-25T20:03:59.299Z,99.90
2023-03-25T20:06:28.220Z,99.90
2023-03-25T20:08:56.219Z,99.90
2023-03-25T20:11:24.193Z,99.90
2023-03-25T20:13:55.735Z,99.90
2023-03-25T20:16:23.770Z,99.90
2023-03-25T20:18:54.694Z,99.90
2023-03-25T20:21:23.158Z,99.90
2023-03-25T20:23:54.472Z,99.90
2023-03-25T20:26:22.647Z,99.90
2023-03-25T20:28:53.719Z,99.90
2023-03-25T20:31:23.421Z,99.90
2023-03-25T20:33:51.645Z,99.90
2023-03-25T20:36:20.076Z,99.90
2023-03-25T20:38:57.085Z,99.90
2023-03-25T20:41:26.705Z,99.90
2023-03-25T20:43:54.466Z,99.90
2023-03-25T20:46:32.012Z,99.90
2023-03-25T20:49:02.041Z,99.90
2023-03-25T20:51:29.812Z,99.90
2023-03-25T20:53:58.141Z,99.90
2023-03-25T20:56:26.019Z,99.90
2023-03-25T20:58:54.076Z,99.90
2023-03-25T21:01:21.860Z,99.90
2023-03-25T21:03:52.081Z,99.90
2023-03-25T21:06:24.386Z,99.90
2023-03-25T21:08:54.882Z,99.90
2023-03-25T21:11:23.087Z,99.90
2023-03-25T21:13:51.021Z,99.90
2023-03-25T21:16:19.302Z,99.90
2023-03-25T21:18:49.332Z,99.90
2023-03-25T21:21:19.771Z,99.90
2023-03-25T21:23:49.361Z,99.90
2023-03-25T21:26:17.716Z,99.90
2023-03-25T21:28:45.446Z,99.90
2023-03-25T21:31:18.897Z,99.90
2023-03-25T21:33:49.933Z,99.90
2023-03-25T21:36:24.490Z,99.90
2023-03-25T21:38:56.728Z,99.90
2023-03-25T21:41:25.267Z,99.90
2023-03-25T21:43:53.440Z,99.90
2023-03-25T21:46:27.757Z,99.90
2023-03-25T21:48:58.667Z,99.90
2023-03-25T21:51:27.497Z,99.90
2023-03-25T21:53:58.537Z,99.90
2023-03-25T21:56:31.088Z,99.90
2023-03-25T21:58:58.888Z,99.90
2023-03-25T22:01:30.522Z,99.90
2023-03-25T22:04:01.150Z,99.90
2023-03-25T22:06:31.677Z,99.90
2023-03-25T22:09:03.864Z,99.90
2023-03-25T22:11:33.858Z,99.90
2023-03-25T22:14:02.240Z,99.90
2023-03-25T22:16:29.958Z,99.90
2023-03-25T22:18:57.816Z,99.90
2023-03-25T22:21:33.359Z,99.90
2023-03-25T22:24:02.593Z,99.90
2023-03-25T22:26:32.099Z,99.90
2023-03-25T22:29:03.742Z,99.90
2023-03-25T22:31:33.541Z,99.90
2023-03-25T22:34:03.821Z,99.90
2023-03-25T22:36:33.427Z,99.90
2023-03-25T22:39:01.249Z,99.90
2023-03-25T22:41:28.921Z,99.90
2023-03-25T22:43:57.491Z,99.90
2023-03-25T22:46:25.658Z,99.90
2023-03-25T22:48:53.494Z,99.90
2023-03-25T22:51:21.647Z,99.90
2023-03-25T22:53:49.465Z,99.90
2023-03-25T22:56:17.115Z,99.90
2023-03-25T22:58:44.847Z,99.90
2023-03-25T23:01:26.898Z,99.90
2023-03-25T23:03:56.708Z,99.90
2023-03-25T23:06:26.186Z,99.90
2023-03-25T23:08:58.461Z,99.90
2023-03-25T23:11:28.945Z,99.90
2023-03-25T23:14:06.270Z,99.90
2023-03-25T23:16:35.601Z,99.90
2023-03-25T23:19:06.092Z,99.90
2023-03-25T23:21:34.559Z,99.90
2023-03-25T23:24:04.066Z,99.90
2023-03-25T23:26:41.097Z,99.90
2023-03-25T23:29:11.745Z,99.90
2023-03-25T23:31:41.956Z,99.90
2023-03-25T23:34:17.548Z,99.90
2023-03-25T23:36:46.799Z,99.90
2023-03-25T23:39:19.696Z,99.90
2023-03-25T23:41:47.504Z,99.90
2023-03-25T23:44:15.533Z,99.90
2023-03-25T23:46:43.673Z,99.90
2023-03-25T23:49:11.642Z,99.90
2023-03-25T23:51:41.740Z,99.90
2023-03-25T23:54:14.636Z,99.90
2023-03-25T23:56:43.372Z,99.90
2023-03-25T23:59:12.311Z,99.90
